sensor_id;sensor_type;location;lat;lon;timestamp;temperature;humidity
1383;DHT22;685;47.196;11.880;2023-02-11T00:01:58;-2.40;99.90
1383;DHT22;685;47.196;11.880;2023-02-11T00:04:25;-2.20;99.90
1383;DHT22;685;47.196;11.880;2023-02-11T00:06:53;-2.10;99.90
1383;DHT22;685;47.196;11.880;2023-02-11T00:09:20;-2.00;99.90
1383;DHT22;685;47.196;11.880;2023-02-11T00:11:47;-2.00;99.90
1383;DHT22;685;47.196;11.880;2023-02-11T00:14:14;-2.10;99.90
1383;DHT22;685;47.196;11.880;2023-02-11T00:16:41;-2.20;99.90
1383;DHT22;685;47.196;11.880;2023-02-11T00:19:08;-2.20;99.90
1383;DHT22;685;47.196;11.880;2023-02-11T00:21:35;-2.20;99.90
1383;DHT22;685;47.196;11.880;2023-02-11T00:24:04;-2.30;99.90
1383;DHT22;685;47.196;11.880;2023-02-11T00:26:33;-2.30;99.90
1383;DHT22;685;47.196;11.880;2023-02-11T00:29:01;-2.20;99.90
1383;DHT22;685;47.196;11.880;2023-02-11T00:31:28;-2.20;99.90
1383;DHT22;685;47.196;11.880;2023-02-11T00:33:55;-2.20;99.90
1383;DHT22;685;47.196;11.880;2023-02-11T00:36:24;-2.40;99.90
1383;DHT22;685;47.196;11.880;2023-02-11T00:38:52;-2.30;99.90
1383;DHT22;685;47.196;11.880;2023-02-11T00:41:21;-2.30;99.90
1383;DHT22;685;47.196;11.880;2023-02-11T00:43:48;-2.20;99.90
1383;DHT22;685;47.196;11.880;2023-02-11T00:46:16;-2.20;99.90
1383;DHT22;685;47.196;11.880;2023-02-11T00:48:43;-2.10;99.90
1383;DHT22;685;47.196;11.880;2023-02-11T00:51:10;-2.00;99.90
1383;DHT22;685;47.196;11.880;2023-02-11T00:53:37;-2.00;99.90
1383;DHT22;685;47.196;11.880;2023-02-11T00:56:05;-2.00;99.90
1383;DHT22;685;47.196;11.880;2023-02-11T00:58:33;-2.00;99.90
1383;DHT22;685;47.196;11.880;2023-02-11T01:01:00;-2.20;99.90
1383;DHT22;685;47.196;11.880;2023-02-11T01:03:27;-2.30;99.90
1383;DHT22;685;47.196;11.880;2023-02-11T01:05:54;-2.30;99.90
1383;DHT22;685;47.196;11.880;2023-02-11T01:08:21;-2.40;99.90
1383;DHT22;685;47.196;11.880;2023-02-11T01:10:54;-2.50;99.90
1383;DHT22;685;47.196;11.880;2023-02-11T01:13:21;-2.40;99.90
1383;DHT22;685;47.196;11.880;2023-02-11T01:15:50;-2.20;99.90
1383;DHT22;685;47.196;11.880;2023-02-11T01:18:17;-2.20;99.90
1383;DHT22;685;47.196;11.880;2023-02-11T01:20:44;-2.20;99.90
1383;DHT22;685;47.196;11.880;2023-02-11T01:23:11;-2.30;99.90
1383;DHT22;685;47.196;11.880;2023-02-11T01:25:38;-2.40;99.90
1383;DHT22;685;47.196;11.880;2023-02-11T01:28:09;-2.30;99.90
1383;DHT22;685;47.196;11.880;2023-02-11T01:30:38;-2.40;99.90
1383;DHT22;685;47.196;11.880;2023-02-11T01:33:06;-2.60;99.90
1383;DHT22;685;47.196;11.880;2023-02-11T01:35:33;-2.50;99.90
1383;DHT22;685;47.196;11.880;2023-02-11T01:38:00;-2.40;99.90
1383;DHT22;685;47.196;11.880;2023-02-11T01:40:27;-2.70;99.90
1383;DHT22;685;47.196;11.880;2023-02-11T01:42:53;-2.50;99.90
1383;DHT22;685;47.196;11.880;2023-02-11T01:45:52;-2.20;99.90
1383;DHT22;685;47.196;11.880;2023-02-11T01:48:24;-2.10;99.90
1383;DHT22;685;47.196;11.880;2023-02-11T01:50:56;-2.50;99.90
1383;DHT22;685;47.196;11.880;2023-02-11T01:53:24;-2.40;99.90
1383;DHT22;685;47.196;11.880;2023-02-11T01:56:09;-2.30;99.90
1383;DHT22;685;47.196;11.880;2023-02-11T01:58:57;-2.20;99.90
1383;DHT22;685;47.196;11.880;2023-02-11T02:01:28;-2.10;99.90
1383;DHT22;685;47.196;11.880;2023-02-11T02:04:00;-2.20;99.90
1383;DHT22;685;47.196;11.880;2023-02-11T02:06:33;-2.20;99.90
1383;DHT22;685;47.196;11.880;2023-02-11T02:09:03;-2.30;99.90
1383;DHT22;685;47.196;11.880;2023-02-11T02:11:31;-2.30;99.90
1383;DHT22;685;47.196;11.880;2023-02-11T02:13:58;-2.30;99.90
1383;DHT22;685;47.196;11.880;2023-02-11T02:16:29;-2.30;99.90
1383;DHT22;685;47.196;11.880;2023-02-11T02:19:08;-2.70;99.90
1383;DHT22;685;47.196;11.880;2023-02-11T02:24:58;-2.80;99.90
1383;DHT22;685;47.196;11.880;2023-02-11T02:27:47;-2.70;99.90
1383;DHT22;685;47.196;11.880;2023-02-11T02:30:40;-2.60;99.90
1383;DHT22;685;47.196;11.880;2023-02-11T02:33:31;-2.90;99.90
1383;DHT22;685;47.196;11.880;2023-02-11T02:36:06;-3.00;99.90
1383;DHT22;685;47.196;11.880;2023-02-11T02:38:38;-2.80;99.90
1383;DHT22;685;47.196;11.880;2023-02-11T02:41:08;-2.70;99.90
1383;DHT22;685;47.196;11.880;2023-02-11T02:43:40;-2.70;99.90
1383;DHT22;685;47.196;11.880;2023-02-11T02:46:13;-2.70;99.90
1383;DHT22;685;47.196;11.880;2023-02-11T02:48:41;-2.70;99.90
1383;DHT22;685;47.196;11.880;2023-02-11T02:51:20;-2.60;99.90
1383;DHT22;685;47.196;11.880;2023-02-11T02:53:57;-2.50;99.90
1383;DHT22;685;47.196;11.880;2023-02-11T02:56:30;-2.50;99.90
1383;DHT22;685;47.196;11.880;2023-02-11T02:59:11;-2.50;99.90
1383;DHT22;685;47.196;11.880;2023-02-11T03:01:46;-2.60;99.90
1383;DHT22;685;47.196;11.880;2023-02-11T03:04:21;-2.60;99.90
1383;DHT22;685;47.196;11.880;2023-02-11T03:06:55;-2.60;99.90
1383;DHT22;685;47.196;11.880;2023-02-11T03:09:27;-2.60;99.90
1383;DHT22;685;47.196;11.880;2023-02-11T03:11:55;-2.60;99.90
1383;DHT22;685;47.196;11.880;2023-02-11T03:14:24;-2.50;99.90
1383;DHT22;685;47.196;11.880;2023-02-11T03:16:54;-2.50;99.90
1383;DHT22;685;47.196;11.880;2023-02-11T03:19:26;-2.50;99.90
1383;DHT22;685;47.196;11.880;2023-02-11T03:21:55;-2.50;99.90
1383;DHT22;685;47.196;11.880;2023-02-11T03:24:26;-2.50;99.90
1383;DHT22;685;47.196;11.880;2023-02-11T03:26:57;-2.60;99.90
1383;DHT22;685;47.196;11.880;2023-02-11T03:29:32;-2.60;99.90
1383;DHT22;685;47.196;11.880;2023-02-11T03:32:05;-2.60;99.90
1383;DHT22;685;47.196;11.880;2023-02-11T03:34:41;-2.70;99.90
1383;DHT22;685;47.196;11.880;2023-02-11T03:37:12;-2.70;99.90
1383;DHT22;685;47.196;11.880;2023-02-11T03:39:43;-2.80;99.90
1383;DHT22;685;47.196;11.880;2023-02-11T03:42:12;-2.70;99.90
1383;DHT22;685;47.196;11.880;2023-02-11T03:44:45;-2.80;99.90
1383;DHT22;685;47.196;11.880;2023-02-11T03:47:14;-2.80;99.90
1383;DHT22;685;47.196;11.880;2023-02-11T03:49:47;-2.80;99.90
1383;DHT22;685;47.196;11.880;2023-02-11T03:52:17;-2.70;99.90
1383;DHT22;685;47.196;11.880;2023-02-11T03:54:48;-2.70;99.90
1383;DHT22;685;47.196;11.880;2023-02-11T03:57:17;-2.70;99.90
1383;DHT22;685;47.196;11.880;2023-02-11T03:59:54;-2.70;99.90
1383;DHT22;685;47.196;11.880;2023-02-11T04:02:22;-2.70;99.90
1383;DHT22;685;47.196;11.880;2023-02-11T04:04:52;-2.70;99.90
1383;DHT22;685;47.196;11.880;2023-02-11T04:07:19;-2.90;99.90
1383;DHT22;685;47.196;11.880;2023-02-11T04:09:46;-3.00;99.90
1383;DHT22;685;47.196;11.880;2023-02-11T04:12:13;-2.80;99.90
1383;DHT22;685;47.196;11.880;2023-02-11T04:14:40;-3.00;99.90
1383;DHT22;685;47.196;11.880;2023-02-11T04:17:06;-3.20;99.90
1383;DHT22;685;47.196;11.880;2023-02-11T04:19:33;-3.40;99.90
1383;DHT22;685;47.196;11.880;2023-02-11T04:22:02;-3.10;99.90
1383;DHT22;685;47.196;11.880;2023-02-11T04:24:29;-3.60;99.90
1383;DHT22;685;47.196;11.880;2023-02-11T04:26:56;-3.50;99.90
1383;DHT22;685;47.196;11.880;2023-02-11T04:29:23;-3.40;99.90
1383;DHT22;685;47.196;11.880;2023-02-11T04:31:49;-3.40;99.90
1383;DHT22;685;47.196;11.880;2023-02-11T04:34:16;-3.70;99.90
1383;DHT22;685;47.196;11.880;2023-02-11T04:36:43;-3.50;99.90
1383;DHT22;685;47.196;11.880;2023-02-11T04:39:12;-3.20;99.90
1383;DHT22;685;47.196;11.880;2023-02-11T04:41:38;-3.00;99.90
1383;DHT22;685;47.196;11.880;2023-02-11T04:44:05;-3.00;99.90
1383;DHT22;685;47.196;11.880;2023-02-11T04:46:33;-3.10;99.90
1383;DHT22;685;47.196;11.880;2023-02-11T04:49:00;-3.00;99.90
1383;DHT22;685;47.196;11.880;2023-02-11T04:51:28;-3.00;99.90
1383;DHT22;685;47.196;11.880;2023-02-11T04:53:55;-3.00;99.90
1383;DHT22;685;47.196;11.880;2023-02-11T04:56:23;-3.00;99.90
1383;DHT22;685;47.196;11.880;2023-02-11T04:58:50;-3.10;99.90
1383;DHT22;685;47.196;11.880;2023-02-11T05:01:17;-2.90;99.90
1383;DHT22;685;47.196;11.880;2023-02-11T05:03:44;-2.90;99.90
1383;DHT22;685;47.196;11.880;2023-02-11T05:06:11;-2.80;99.90
1383;DHT22;685;47.196;11.880;2023-02-11T05:08:38;-2.90;99.90
1383;DHT22;685;47.196;11.880;2023-02-11T05:11:06;-2.80;99.90
1383;DHT22;685;47.196;11.880;2023-02-11T05:13:35;-2.70;99.90
1383;DHT22;685;47.196;11.880;2023-02-11T05:16:01;-3.40;99.90
1383;DHT22;685;47.196;11.880;2023-02-11T05:18:28;-3.50;99.90
1383;DHT22;685;47.196;11.880;2023-02-11T05:20:55;-3.40;99.90
1383;DHT22;685;47.196;11.880;2023-02-11T05:23:22;-3.20;99.90
1383;DHT22;685;47.196;11.880;2023-02-11T05:25:49;-3.00;99.90
1383;DHT22;685;47.196;11.880;2023-02-11T05:28:16;-3.30;99.90
1383;DHT22;685;47.196;11.880;2023-02-11T05:30:45;-3.50;99.90
1383;DHT22;685;47.196;11.880;2023-02-11T05:33:12;-3.50;99.90
1383;DHT22;685;47.196;11.880;2023-02-11T05:35:38;-3.60;99.90
1383;DHT22;685;47.196;11.880;2023-02-11T05:38:05;-3.60;99.90
1383;DHT22;685;47.196;11.880;2023-02-11T05:40:32;-3.50;99.90
1383;DHT22;685;47.196;11.880;2023-02-11T05:42:59;-3.60;99.90
1383;DHT22;685;47.196;11.880;2023-02-11T05:45:26;-3.40;99.90
1383;DHT22;685;47.196;11.880;2023-02-11T05:47:54;-3.30;99.90
1383;DHT22;685;47.196;11.880;2023-02-11T05:50:21;-3.10;99.90
1383;DHT22;685;47.196;11.880;2023-02-11T05:52:48;-3.00;99.90
1383;DHT22;685;47.196;11.880;2023-02-11T05:55:15;-3.00;99.90
1383;DHT22;685;47.196;11.880;2023-02-11T05:57:42;-3.00;99.90
1383;DHT22;685;47.196;11.880;2023-02-11T06:00:10;-2.90;99.90
1383;DHT22;685;47.196;11.880;2023-02-11T06:02:37;-2.80;99.90
1383;DHT22;685;47.196;11.880;2023-02-11T06:05:07;-3.10;99.90
1383;DHT22;685;47.196;11.880;2023-02-11T06:07:34;-3.00;99.90
1383;DHT22;685;47.196;11.880;2023-02-11T06:10:01;-3.10;99.90
1383;DHT22;685;47.196;11.880;2023-02-11T06:12:27;-3.10;99.90
1383;DHT22;685;47.196;11.880;2023-02-11T06:14:54;-3.10;99.90
1383;DHT22;685;47.196;11.880;2023-02-11T06:17:21;-3.00;99.90
1383;DHT22;685;47.196;11.880;2023-02-11T06:19:49;-2.90;99.90
1383;DHT22;685;47.196;11.880;2023-02-11T06:22:18;-2.90;99.90
1383;DHT22;685;47.196;11.880;2023-02-11T06:24:44;-2.80;99.90
1383;DHT22;685;47.196;11.880;2023-02-11T06:27:11;-3.00;99.90
1383;DHT22;685;47.196;11.880;2023-02-11T06:29:38;-2.90;99.90
1383;DHT22;685;47.196;11.880;2023-02-11T06:32:05;-3.00;99.90
1383;DHT22;685;47.196;11.880;2023-02-11T06:34:32;-3.10;99.90
1383;DHT22;685;47.196;11.880;2023-02-11T06:36:59;-3.10;99.90
1383;DHT22;685;47.196;11.880;2023-02-11T06:39:27;-3.30;99.90
1383;DHT22;685;47.196;11.880;2023-02-11T06:41:54;-3.50;99.90
1383;DHT22;685;47.196;11.880;2023-02-11T06:44:21;-3.30;99.90
1383;DHT22;685;47.196;11.880;2023-02-11T06:46:48;-3.20;99.90
1383;DHT22;685;47.196;11.880;2023-02-11T06:49:15;-3.00;99.90
1383;DHT22;685;47.196;11.880;2023-02-11T06:51:42;-3.10;99.90
1383;DHT22;685;47.196;11.880;2023-02-11T06:54:10;-3.10;99.90
1383;DHT22;685;47.196;11.880;2023-02-11T06:56:40;-3.00;99.90
1383;DHT22;685;47.196;11.880;2023-02-11T06:59:07;-2.90;99.90
1383;DHT22;685;47.196;11.880;2023-02-11T07:01:34;-3.10;99.90
1383;DHT22;685;47.196;11.880;2023-02-11T07:04:01;-3.10;99.90
1383;DHT22;685;47.196;11.880;2023-02-11T07:06:28;-3.20;99.90
1383;DHT22;685;47.196;11.880;2023-02-11T07:08:55;-3.00;99.90
1383;DHT22;685;47.196;11.880;2023-02-11T07:11:24;-3.00;99.90
1383;DHT22;685;47.196;11.880;2023-02-11T07:13:55;-3.00;99.90
1383;DHT22;685;47.196;11.880;2023-02-11T07:16:22;-2.90;99.90
1383;DHT22;685;47.196;11.880;2023-02-11T07:18:49;-2.80;99.90
1383;DHT22;685;47.196;11.880;2023-02-11T07:21:17;-2.70;99.90
1383;DHT22;685;47.196;11.880;2023-02-11T07:23:45;-2.90;99.90
1383;DHT22;685;47.196;11.880;2023-02-11T07:26:14;-2.70;99.90
1383;DHT22;685;47.196;11.880;2023-02-11T07:28:42;-2.60;99.90
1383;DHT22;685;47.196;11.880;2023-02-11T07:31:12;-2.50;99.90
1383;DHT22;685;47.196;11.880;2023-02-11T07:33:39;-2.50;99.90
1383;DHT22;685;47.196;11.880;2023-02-11T07:36:08;-2.60;99.90
1383;DHT22;685;47.196;11.880;2023-02-11T07:38:36;-2.50;99.90
1383;DHT22;685;47.196;11.880;2023-02-11T07:41:05;-2.40;99.90
1383;DHT22;685;47.196;11.880;2023-02-11T07:43:32;-2.40;99.90
1383;DHT22;685;47.196;11.880;2023-02-11T07:46:02;-2.40;99.90
1383;DHT22;685;47.196;11.880;2023-02-11T07:48:30;-2.40;99.90
1383;DHT22;685;47.196;11.880;2023-02-11T07:51:04;-2.30;99.90
1383;DHT22;685;47.196;11.880;2023-02-11T07:53:31;-2.30;99.90
1383;DHT22;685;47.196;11.880;2023-02-11T07:55:58;-2.20;99.90
1383;DHT22;685;47.196;11.880;2023-02-11T07:58:25;-2.20;99.90
1383;DHT22;685;47.196;11.880;2023-02-11T08:00:52;-2.10;99.90
1383;DHT22;685;47.196;11.880;2023-02-11T08:03:19;-2.10;99.90
1383;DHT22;685;47.196;11.880;2023-02-11T08:05:47;-2.00;99.90
1383;DHT22;685;47.196;11.880;2023-02-11T08:08:14;-2.30;99.90
1383;DHT22;685;47.196;11.880;2023-02-11T08:10:40;-2.20;99.90
1383;DHT22;685;47.196;11.880;2023-02-11T08:13:07;-2.00;99.90
1383;DHT22;685;47.196;11.880;2023-02-11T08:15:34;-1.80;99.90
1383;DHT22;685;47.196;11.880;2023-02-11T08:18:01;-1.70;99.90
1383;DHT22;685;47.196;11.880;2023-02-11T08:20:28;-1.70;99.90
1383;DHT22;685;47.196;11.880;2023-02-11T08:22:56;-1.70;99.90
1383;DHT22;685;47.196;11.880;2023-02-11T08:25:23;-2.00;99.90
1383;DHT22;685;47.196;11.880;2023-02-11T08:27:50;-2.10;99.90
1383;DHT22;685;47.196;11.880;2023-02-11T08:30:17;-1.90;99.90
1383;DHT22;685;47.196;11.880;2023-02-11T08:32:44;-1.90;99.90
1383;DHT22;685;47.196;11.880;2023-02-11T08:35:11;-1.80;99.90
1383;DHT22;685;47.196;11.880;2023-02-11T08:37:38;-1.70;99.90
1383;DHT22;685;47.196;11.880;2023-02-11T08:40:07;-1.60;99.90
1383;DHT22;685;47.196;11.880;2023-02-11T08:42:34;-1.50;99.90
1383;DHT22;685;47.196;11.880;2023-02-11T08:45:01;-1.40;99.90
1383;DHT22;685;47.196;11.880;2023-02-11T08:47:29;-1.50;99.90
1383;DHT22;685;47.196;11.880;2023-02-11T08:49:57;-1.40;99.90
1383;DHT22;685;47.196;11.880;2023-02-11T08:52:23;-1.50;99.90
1383;DHT22;685;47.196;11.880;2023-02-11T08:54:50;-1.40;99.90
1383;DHT22;685;47.196;11.880;2023-02-11T08:57:18;-2.00;99.90
1383;DHT22;685;47.196;11.880;2023-02-11T08:59:45;-2.00;99.90
1383;DHT22;685;47.196;11.880;2023-02-11T09:02:13;-1.90;99.90
1383;DHT22;685;47.196;11.880;2023-02-11T09:04:40;-2.10;99.90
1383;DHT22;685;47.196;11.880;2023-02-11T09:07:07;-2.40;99.90
1383;DHT22;685;47.196;11.880;2023-02-11T09:09:34;-2.40;99.90
1383;DHT22;685;47.196;11.880;2023-02-11T09:12:01;-2.00;99.90
1383;DHT22;685;47.196;11.880;2023-02-11T09:14:29;-1.70;99.90
1383;DHT22;685;47.196;11.880;2023-02-11T09:16:56;-1.60;99.90
1383;DHT22;685;47.196;11.880;2023-02-11T09:19:23;-1.40;99.90
1383;DHT22;685;47.196;11.880;2023-02-11T09:21:50;-1.40;99.90
1383;DHT22;685;47.196;11.880;2023-02-11T09:24:17;-1.50;99.90
1383;DHT22;685;47.196;11.880;2023-02-11T09:26:44;-1.60;99.90
1383;DHT22;685;47.196;11.880;2023-02-11T09:29:10;-1.40;99.90
1383;DHT22;685;47.196;11.880;2023-02-11T09:31:39;-1.30;99.90
1383;DHT22;685;47.196;11.880;2023-02-11T09:34:06;-1.20;99.90
1383;DHT22;685;47.196;11.880;2023-02-11T09:36:35;-1.10;99.90
1383;DHT22;685;47.196;11.880;2023-02-11T09:39:04;-1.00;99.90
1383;DHT22;685;47.196;11.880;2023-02-11T09:41:42;-1.00;99.90
1383;DHT22;685;47.196;11.880;2023-02-11T09:44:19;-0.90;99.90
1383;DHT22;685;47.196;11.880;2023-02-11T09:46:53;-0.90;99.90
1383;DHT22;685;47.196;11.880;2023-02-11T09:49:24;-0.80;99.90
1383;DHT22;685;47.196;11.880;2023-02-11T09:52:01;-0.70;99.90
1383;DHT22;685;47.196;11.880;2023-02-11T09:54:33;-0.70;99.90
1383;DHT22;685;47.196;11.880;2023-02-11T09:57:01;-0.70;99.90
1383;DHT22;685;47.196;11.880;2023-02-11T09:59:28;-0.70;99.90
1383;DHT22;685;47.196;11.880;2023-02-11T10:01:59;-0.70;99.90
1383;DHT22;685;47.196;11.880;2023-02-11T10:04:41;-0.70;99.90
1383;DHT22;685;47.196;11.880;2023-02-11T10:07:17;-0.80;99.90
1383;DHT22;685;47.196;11.880;2023-02-11T10:09:56;-0.90;99.90
1383;DHT22;685;47.196;11.880;2023-02-11T10:12:38;-0.80;99.90
1383;DHT22;685;47.196;11.880;2023-02-11T10:15:17;-0.70;99.90
1383;DHT22;685;47.196;11.880;2023-02-11T10:17:58;-0.50;99.90
1383;DHT22;685;47.196;11.880;2023-02-11T10:20:31;-0.50;99.90
1383;DHT22;685;47.196;11.880;2023-02-11T10:23:00;-0.70;99.90
1383;DHT22;685;47.196;11.880;2023-02-11T10:25:33;-0.80;99.90
1383;DHT22;685;47.196;11.880;2023-02-11T10:28:10;-0.70;99.90
1383;DHT22;685;47.196;11.880;2023-02-11T10:30:41;-0.60;99.90
1383;DHT22;685;47.196;11.880;2023-02-11T10:33:16;-0.50;99.90
1383;DHT22;685;47.196;11.880;2023-02-11T10:35:46;-0.30;99.90
1383;DHT22;685;47.196;11.880;2023-02-11T10:38:12;-0.20;99.90
1383;DHT22;685;47.196;11.880;2023-02-11T10:40:40;-0.10;99.90
1383;DHT22;685;47.196;11.880;2023-02-11T10:43:10;-0.10;99.90
1383;DHT22;685;47.196;11.880;2023-02-11T10:45:42;-0.10;99.90
1383;DHT22;685;47.196;11.880;2023-02-11T10:48:39;-0.10;99.90
1383;DHT22;685;47.196;11.880;2023-02-11T10:51:14;-0.30;99.90
1383;DHT22;685;47.196;11.880;2023-02-11T10:53:41;-0.50;99.90
1383;DHT22;685;47.196;11.880;2023-02-11T10:56:11;-0.40;99.90
1383;DHT22;685;47.196;11.880;2023-02-11T10:58:40;-0.30;99.90
1383;DHT22;685;47.196;11.880;2023-02-11T11:01:10;-0.20;99.90
1383;DHT22;685;47.196;11.880;2023-02-11T11:03:46;-0.10;99.90
1383;DHT22;685;47.196;11.880;2023-02-11T11:06:13;0.10;99.90
1383;DHT22;685;47.196;11.880;2023-02-11T11:08:43;0.20;99.90
1383;DHT22;685;47.196;11.880;2023-02-11T11:11:12;0.30;99.90
1383;DHT22;685;47.196;11.880;2023-02-11T11:13:41;0.30;99.90
1383;DHT22;685;47.196;11.880;2023-02-11T11:16:22;0.50;99.90
1383;DHT22;685;47.196;11.880;2023-02-11T11:18:52;0.30;99.90
1383;DHT22;685;47.196;11.880;2023-02-11T11:21:22;0.40;99.90
1383;DHT22;685;47.196;11.880;2023-02-11T11:23:53;0.80;99.90
1383;DHT22;685;47.196;11.880;2023-02-11T11:26:21;0.80;99.90
1383;DHT22;685;47.196;11.880;2023-02-11T11:28:57;0.80;99.90
1383;DHT22;685;47.196;11.880;2023-02-11T11:31:29;1.00;99.90
1383;DHT22;685;47.196;11.880;2023-02-11T11:33:59;1.50;99.90
1383;DHT22;685;47.196;11.880;2023-02-11T11:36:34;1.60;99.90
1383;DHT22;685;47.196;11.880;2023-02-11T11:39:16;1.50;99.90
1383;DHT22;685;47.196;11.880;2023-02-11T11:41:55;1.90;99.90
1383;DHT22;685;47.196;11.880;2023-02-11T11:44:26;2.00;99.90
1383;DHT22;685;47.196;11.880;2023-02-11T11:47:11;1.60;99.90
1383;DHT22;685;47.196;11.880;2023-02-11T11:49:46;1.40;99.90
1383;DHT22;685;47.196;11.880;2023-02-11T11:52:19;1.40;99.90
1383;DHT22;685;47.196;11.880;2023-02-11T11:54:59;1.30;99.90
1383;DHT22;685;47.196;11.880;2023-02-11T11:57:28;1.30;99.90
1383;DHT22;685;47.196;11.880;2023-02-11T11:59:57;1.30;99.90
1383;DHT22;685;47.196;11.880;2023-02-11T12:02:44;1.30;99.90
1383;DHT22;685;47.196;11.880;2023-02-11T12:05:24;1.40;99.90
1383;DHT22;685;47.196;11.880;2023-02-11T12:07:59;1.40;99.90
1383;DHT22;685;47.196;11.880;2023-02-11T12:10:43;1.60;99.90
1383;DHT22;685;47.196;11.880;2023-02-11T12:13:26;2.30;99.90
1383;DHT22;685;47.196;11.880;2023-02-11T12:16:04;2.20;99.90
1383;DHT22;685;47.196;11.880;2023-02-11T12:21:34;1.90;99.90
1383;DHT22;685;47.196;11.880;2023-02-11T12:24:14;1.70;99.90
1383;DHT22;685;47.196;11.880;2023-02-11T12:26:44;1.70;99.90
1383;DHT22;685;47.196;11.880;2023-02-11T12:29:21;1.70;99.90
1383;DHT22;685;47.196;11.880;2023-02-11T12:32:16;1.70;99.90
1383;DHT22;685;47.196;11.880;2023-02-11T12:34:58;1.50;99.90
1383;DHT22;685;47.196;11.880;2023-02-11T12:37:41;1.30;99.90
1383;DHT22;685;47.196;11.880;2023-02-11T12:40:15;1.40;99.90
1383;DHT22;685;47.196;11.880;2023-02-11T12:42:54;1.40;99.90
1383;DHT22;685;47.196;11.880;2023-02-11T12:45:57;1.50;99.90
1383;DHT22;685;47.196;11.880;2023-02-11T12:48:44;1.60;99.90
1383;DHT22;685;47.196;11.880;2023-02-11T12:51:26;1.60;99.90
1383;DHT22;685;47.196;11.880;2023-02-11T12:54:13;1.60;99.90
1383;DHT22;685;47.196;11.880;2023-02-11T12:56:45;1.60;99.90
1383;DHT22;685;47.196;11.880;2023-02-11T12:59:18;1.50;99.90
1383;DHT22;685;47.196;11.880;2023-02-11T13:01:47;1.50;99.90
1383;DHT22;685;47.196;11.880;2023-02-11T13:04:18;1.50;99.90
1383;DHT22;685;47.196;11.880;2023-02-11T13:06:50;1.50;99.90
1383;DHT22;685;47.196;11.880;2023-02-11T13:09:22;1.50;99.90
1383;DHT22;685;47.196;11.880;2023-02-11T13:11:53;1.60;99.90
1383;DHT22;685;47.196;11.880;2023-02-11T13:14:24;1.70;99.90
1383;DHT22;685;47.196;11.880;2023-02-11T13:16:53;1.70;99.90
1383;DHT22;685;47.196;11.880;2023-02-11T13:19:27;1.70;99.90
1383;DHT22;685;47.196;11.880;2023-02-11T13:22:04;1.70;99.90
1383;DHT22;685;47.196;11.880;2023-02-11T13:24:40;1.80;99.90
1383;DHT22;685;47.196;11.880;2023-02-11T13:27:17;1.90;99.90
1383;DHT22;685;47.196;11.880;2023-02-11T13:33:16;1.80;99.90
1383;DHT22;685;47.196;11.880;2023-02-11T13:35:47;1.80;99.90
1383;DHT22;685;47.196;11.880;2023-02-11T13:38:20;1.80;99.90
1383;DHT22;685;47.196;11.880;2023-02-11T13:41:02;2.00;99.90
1383;DHT22;685;47.196;11.880;2023-02-11T13:43:30;2.00;99.90
1383;DHT22;685;47.196;11.880;2023-02-11T13:45:59;2.00;99.90
1383;DHT22;685;47.196;11.880;2023-02-11T13:48:28;2.00;99.90
1383;DHT22;685;47.196;11.880;2023-02-11T13:50:57;2.10;99.90
1383;DHT22;685;47.196;11.880;2023-02-11T13:53:26;2.10;99.90
1383;DHT22;685;47.196;11.880;2023-02-11T13:56:06;2.10;99.90
1383;DHT22;685;47.196;11.880;2023-02-11T13:58:35;2.20;99.90
1383;DHT22;685;47.196;11.880;2023-02-11T14:01:05;2.10;99.90
1383;DHT22;685;47.196;11.880;2023-02-11T14:03:34;2.00;99.90
1383;DHT22;685;47.196;11.880;2023-02-11T14:06:22;2.00;99.90
1383;DHT22;685;47.196;11.880;2023-02-11T14:09:36;2.10;99.90
1383;DHT22;685;47.196;11.880;2023-02-11T14:12:29;2.10;99.90
1383;DHT22;685;47.196;11.880;2023-02-11T14:14:59;2.10;99.90
1383;DHT22;685;47.196;11.880;2023-02-11T14:17:30;2.00;99.90
1383;DHT22;685;47.196;11.880;2023-02-11T14:19:58;2.10;99.90
1383;DHT22;685;47.196;11.880;2023-02-11T14:22:28;2.20;99.90
1383;DHT22;685;47.196;11.880;2023-02-11T14:24:58;2.50;99.90
1383;DHT22;685;47.196;11.880;2023-02-11T14:27:34;2.30;99.90
1383;DHT22;685;47.196;11.880;2023-02-11T14:30:25;2.20;99.90
1383;DHT22;685;47.196;11.880;2023-02-11T14:33:19;2.10;99.90
1383;DHT22;685;47.196;11.880;2023-02-11T14:35:57;2.10;99.90
1383;DHT22;685;47.196;11.880;2023-02-11T14:38:33;2.10;99.90
1383;DHT22;685;47.196;11.880;2023-02-11T14:41:08;2.40;99.90
1383;DHT22;685;47.196;11.880;2023-02-11T14:43:40;2.40;99.90
1383;DHT22;685;47.196;11.880;2023-02-11T14:46:11;2.30;99.90
1383;DHT22;685;47.196;11.880;2023-02-11T14:48:43;2.30;99.90
1383;DHT22;685;47.196;11.880;2023-02-11T14:51:14;2.20;99.90
1383;DHT22;685;47.196;11.880;2023-02-11T14:53:44;2.30;99.90
1383;DHT22;685;47.196;11.880;2023-02-11T14:56:17;2.60;99.90
1383;DHT22;685;47.196;11.880;2023-02-11T14:58:47;2.80;99.90
1383;DHT22;685;47.196;11.880;2023-02-11T15:01:25;2.70;99.90
1383;DHT22;685;47.196;11.880;2023-02-11T15:03:52;2.50;99.90
1383;DHT22;685;47.196;11.880;2023-02-11T15:06:23;2.30;99.90
1383;DHT22;685;47.196;11.880;2023-02-11T15:08:53;2.20;99.90
1383;DHT22;685;47.196;11.880;2023-02-11T15:11:23;2.20;99.90
1383;DHT22;685;47.196;11.880;2023-02-11T15:13:52;2.20;99.90
1383;DHT22;685;47.196;11.880;2023-02-11T15:16:22;2.20;99.90
1383;DHT22;685;47.196;11.880;2023-02-11T15:18:53;2.60;99.90
1383;DHT22;685;47.196;11.880;2023-02-11T15:21:22;2.50;99.90
1383;DHT22;685;47.196;11.880;2023-02-11T15:23:58;2.40;99.90
1383;DHT22;685;47.196;11.880;2023-02-11T15:26:25;2.20;99.90
1383;DHT22;685;47.196;11.880;2023-02-11T15:28:53;2.20;99.90
1383;DHT22;685;47.196;11.880;2023-02-11T15:31:22;2.20;99.90
1383;DHT22;685;47.196;11.880;2023-02-11T15:33:50;2.20;99.90
1383;DHT22;685;47.196;11.880;2023-02-11T15:36:19;2.30;99.90
1383;DHT22;685;47.196;11.880;2023-02-11T15:39:15;2.20;99.90
1383;DHT22;685;47.196;11.880;2023-02-11T15:41:42;2.20;99.90
1383;DHT22;685;47.196;11.880;2023-02-11T15:44:30;2.20;99.90
1383;DHT22;685;47.196;11.880;2023-02-11T15:46:57;2.40;99.90
1383;DHT22;685;47.196;11.880;2023-02-11T15:49:25;2.40;99.90
1383;DHT22;685;47.196;11.880;2023-02-11T15:51:53;2.30;99.90
1383;DHT22;685;47.196;11.880;2023-02-11T15:54:24;2.30;99.90
1383;DHT22;685;47.196;11.880;2023-02-11T15:56:53;2.20;99.90
1383;DHT22;685;47.196;11.880;2023-02-11T15:59:25;2.20;99.90
1383;DHT22;685;47.196;11.880;2023-02-11T16:01:54;2.20;99.90
1383;DHT22;685;47.196;11.880;2023-02-11T16:04:24;2.30;99.90
1383;DHT22;685;47.196;11.880;2023-02-11T16:06:52;2.30;99.90
1383;DHT22;685;47.196;11.880;2023-02-11T16:09:29;2.30;99.90
1383;DHT22;685;47.196;11.880;2023-02-11T16:12:00;2.20;99.90
1383;DHT22;685;47.196;11.880;2023-02-11T16:14:31;2.20;99.90
1383;DHT22;685;47.196;11.880;2023-02-11T16:17:02;2.10;99.90
1383;DHT22;685;47.196;11.880;2023-02-11T16:19:31;2.20;99.90
1383;DHT22;685;47.196;11.880;2023-02-11T16:22:00;2.10;99.90
1383;DHT22;685;47.196;11.880;2023-02-11T16:24:30;2.20;99.90
1383;DHT22;685;47.196;11.880;2023-02-11T16:26:59;2.20;99.90
1383;DHT22;685;47.196;11.880;2023-02-11T16:29:28;2.20;99.90
1383;DHT22;685;47.196;11.880;2023-02-11T16:32:06;2.20;99.90
1383;DHT22;685;47.196;11.880;2023-02-11T16:34:35;2.20;99.90
1383;DHT22;685;47.196;11.880;2023-02-11T16:37:03;2.30;99.90
1383;DHT22;685;47.196;11.880;2023-02-11T16:39:30;2.10;99.90
1383;DHT22;685;47.196;11.880;2023-02-11T16:41:57;1.90;99.90